sensor_id;sensor_type;location;lat;lon;timestamp;pressure;altitude;pressure_sealevel;temperature;humidity
15272;BME280;7737;51.578;7.268;2023-04-28T00:02:17;100863.72;;;9.26;100.00
15272;BME280;7737;51.578;7.268;2023-04-28T00:04:43;100856.09;;;9.39;100.00
15272;BME280;7737;51.578;7.268;2023-04-28T00:07:11;100846.88;;;9.27;100.00
15272;BME280;7737;51.578;7.268;2023-04-28T00:09:37;100845.19;;;9.25;100.00
15272;BME280;7737;51.578;7.268;2023-04-28T00:12:05;100835.13;;;9.33;100.00
15272;BME280;7737;51.578;7.268;2023-04-28T00:14:32;100838.31;;;9.41;100.00
15272;BME280;7737;51.578;7.268;2023-04-28T00:16:58;100815.91;;;9.48;100.00
15272;BME280;7737;51.578;7.268;2023-04-28T00:19:26;100808.53;;;9.54;100.00
15272;BME280;7737;51.578;7.268;2023-04-28T00:21:52;100813.41;;;9.45;100.00
15272;BME280;7737;51.578;7.268;2023-04-28T00:24:19;100811.91;;;9.38;100.00
15272;BME280;7737;51.578;7.268;2023-04-28T00:26:45;100808.88;;;9.47;100.00
15272;BME280;7737;51.578;7.268;2023-04-28T00:29:13;100813.25;;;9.48;100.00
15272;BME280;7737;51.578;7.268;2023-04-28T00:31:39;100793.88;;;9.46;100.00
15272;BME280;7737;51.578;7.268;2023-04-28T00:34:06;100798.94;;;9.52;100.00
15272;BME280;7737;51.578;7.268;2023-04-28T00:36:32;100783.59;;;9.58;100.00
15272;BME280;7737;51.578;7.268;2023-04-28T00:39:00;100776.91;;;9.50;100.00
15272;BME280;7737;51.578;7.268;2023-04-28T00:41:26;100785.00;;;9.47;100.00
15272;BME280;7737;51.578;7.268;2023-04-28T00:43:52;100769.75;;;9.52;100.00
15272;BME280;7737;51.578;7.268;2023-04-28T00:46:23;100767.34;;;9.46;100.00
15272;BME280;7737;51.578;7.268;2023-04-28T00:48:52;100761.38;;;9.61;100.00
15272;BME280;7737;51.578;7.268;2023-04-28T00:51:18;100747.78;;;9.48;100.00
15272;BME280;7737;51.578;7.268;2023-04-28T00:53:45;100761.03;;;9.48;100.00
15272;BME280;7737;51.578;7.268;2023-04-28T00:56:12;100766.81;;;9.58;100.00
15272;BME280;7737;51.578;7.268;2023-04-28T00:58:39;100768.47;;;9.60;100.00
15272;BME280;7737;51.578;7.268;2023-04-28T01:01:06;100748.03;;;9.62;100.00
15272;BME280;7737;51.578;7.268;2023-04-28T01:03:36;100754.03;;;9.47;100.00
15272;BME280;7737;51.578;7.268;2023-04-28T01:06:03;100759.78;;;9.57;100.00
15272;BME280;7737;51.578;7.268;2023-04-28T01:08:30;100755.78;;;9.67;100.00
15272;BME280;7737;51.578;7.268;2023-04-28T01:10:57;100756.50;;;9.70;100.00
15272;BME280;7737;51.578;7.268;2023-04-28T01:13:23;100756.06;;;9.41;100.00
15272;BME280;7737;51.578;7.268;2023-04-28T01:15:50;100765.47;;;9.48;100.00
15272;BME280;7737;51.578;7.268;2023-04-28T01:18:17;100771.78;;;9.45;100.00
15272;BME280;7737;51.578;7.268;2023-04-28T01:20:45;100782.09;;;9.53;100.00
15272;BME280;7737;51.578;7.268;2023-04-28T01:23:12;100794.44;;;9.34;100.00
15272;BME280;7737;51.578;7.268;2023-04-28T01:25:39;100797.22;;;9.10;100.00
15272;BME280;7737;51.578;7.268;2023-04-28T01:28:06;100792.16;;;9.25;100.00
15272;BME280;7737;51.578;7.268;2023-04-28T01:30:33;100793.34;;;9.17;100.00
15272;BME280;7737;51.578;7.268;2023-04-28T01:33:00;100799.13;;;9.07;100.00
15272;BME280;7737;51.578;7.268;2023-04-28T01:35:26;100797.69;;;8.98;100.00
15272;BME280;7737;51.578;7.268;2023-04-28T01:37:53;100791.06;;;9.08;100.00
15272;BME280;7737;51.578;7.268;2023-04-28T01:40:19;100782.34;;;9.27;100.00
15272;BME280;7737;51.578;7.268;2023-04-28T01:42:47;100774.91;;;9.14;100.00
15272;BME280;7737;51.578;7.268;2023-04-28T01:45:13;100766.50;;;9.05;100.00
15272;BME280;7737;51.578;7.268;2023-04-28T01:47:40;100757.13;;;9.16;100.00
15272;BME280;7737;51.578;7.268;2023-04-28T01:50:07;100756.22;;;9.17;100.00
15272;BME280;7737;51.578;7.268;2023-04-28T01:52:33;100761.00;;;9.09;100.00
15272;BME280;7737;51.578;7.268;2023-04-28T01:55:00;100764.97;;;9.19;100.00
15272;BME280;7737;51.578;7.268;2023-04-28T01:57:27;100770.03;;;9.26;100.00
15272;BME280;7737;51.578;7.268;2023-04-28T01:59:55;100767.28;;;9.07;100.00
15272;BME280;7737;51.578;7.268;2023-04-28T02:02:23;100785.56;;;8.93;100.00
15272;BME280;7737;51.578;7.268;2023-04-28T02:04:49;100790.16;;;8.89;100.00
15272;BME280;7737;51.578;7.268;2023-04-28T02:07:16;100793.72;;;9.08;100.00
15272;BME280;7737;51.578;7.268;2023-04-28T02:09:42;100789.53;;;9.03;100.00
15272;BME280;7737;51.578;7.268;2023-04-28T02:12:09;100787.50;;;8.89;100.00
15272;BME280;7737;51.578;7.268;2023-04-28T02:14:35;100776.69;;;9.14;100.00
15272;BME280;7737;51.578;7.268;2023-04-28T02:17:03;100771.53;;;9.11;100.00
15272;BME280;7737;51.578;7.268;2023-04-28T02:19:29;100757.44;;;9.10;100.00
15272;BME280;7737;51.578;7.268;2023-04-28T02:21:56;100762.94;;;8.84;100.00
15272;BME280;7737;51.578;7.268;2023-04-28T02:24:22;100766.03;;;8.74;100.00
15272;BME280;7737;51.578;7.268;2023-04-28T02:26:49;100762.69;;;8.90;100.00
15272;BME280;7737;51.578;7.268;2023-04-28T02:29:15;100758.28;;;8.69;100.00
15272;BME280;7737;51.578;7.268;2023-04-28T02:31:42;100766.75;;;8.57;100.00
15272;BME280;7737;51.578;7.268;2023-04-28T02:34:10;100766.88;;;8.54;100.00
15272;BME280;7737;51.578;7.268;2023-04-28T02:36:38;100771.13;;;8.36;100.00
15272;BME280;7737;51.578;7.268;2023-04-28T02:39:04;100751.66;;;8.59;100.00
15272;BME280;7737;51.578;7.268;2023-04-28T02:41:30;100754.09;;;8.42;100.00
15272;BME280;7737;51.578;7.268;2023-04-28T02:43:59;100746.84;;;8.47;100.00
15272;BME280;7737;51.578;7.268;2023-04-28T02:46:25;100754.72;;;8.27;100.00
15272;BME280;7737;51.578;7.268;2023-04-28T02:48:52;100762.66;;;8.27;100.00
15272;BME280;7737;51.578;7.268;2023-04-28T02:51:20;100753.81;;;8.26;100.00
15272;BME280;7737;51.578;7.268;2023-04-28T02:53:46;100757.00;;;8.36;100.00
15272;BME280;7737;51.578;7.268;2023-04-28T02:56:13;100754.47;;;8.33;100.00
15272;BME280;7737;51.578;7.268;2023-04-28T02:58:39;100752.63;;;8.35;100.00
15272;BME280;7737;51.578;7.268;2023-04-28T03:01:06;100745.94;;;8.25;100.00
15272;BME280;7737;51.578;7.268;2023-04-28T03:03:32;100750.56;;;8.20;100.00
15272;BME280;7737;51.578;7.268;2023-04-28T03:05:59;100747.91;;;8.20;100.00
15272;BME280;7737;51.578;7.268;2023-04-28T03:08:27;100750.47;;;8.21;100.00
15272;BME280;7737;51.578;7.268;2023-04-28T03:10:53;100750.28;;;8.27;100.00
15272;BME280;7737;51.578;7.268;2023-04-28T03:13:19;100743.88;;;8.33;100.00
15272;BME280;7737;51.578;7.268;2023-04-28T03:15:46;100748.66;;;8.23;100.00
15272;BME280;7737;51.578;7.268;2023-04-28T03:18:12;100735.34;;;8.25;100.00
15272;BME280;7737;51.578;7.268;2023-04-28T03:20:39;100738.72;;;8.30;100.00
15272;BME280;7737;51.578;7.268;2023-04-28T03:23:05;100732.63;;;8.26;100.00
15272;BME280;7737;51.578;7.268;2023-04-28T03:25:33;100729.59;;;8.37;100.00
15272;BME280;7737;51.578;7.268;2023-04-28T03:28:00;100735.88;;;8.34;100.00
15272;BME280;7737;51.578;7.268;2023-04-28T03:30:27;100729.59;;;8.37;100.00
15272;BME280;7737;51.578;7.268;2023-04-28T03:32:53;100734.16;;;8.33;100.00
15272;BME280;7737;51.578;7.268;2023-04-28T03:35:19;100720.97;;;8.32;100.00
15272;BME280;7737;51.578;7.268;2023-04-28T03:37:46;100717.31;;;8.34;100.00
15272;BME280;7737;51.578;7.268;2023-04-28T03:40:13;100708.78;;;8.28;100.00
15272;BME280;7737;51.578;7.268;2023-04-28T03:42:41;100711.97;;;8.36;100.00
15272;BME280;7737;51.578;7.268;2023-04-28T03:45:08;100710.56;;;8.27;100.00
15272;BME280;7737;51.578;7.268;2023-04-28T03:47:35;100706.06;;;8.29;100.00
15272;BME280;7737;51.578;7.268;2023-04-28T03:50:02;100698.06;;;8.31;100.00
15272;BME280;7737;51.578;7.268;2023-04-28T03:52:28;100703.75;;;8.42;100.00
15272;BME280;7737;51.578;7.268;2023-04-28T03:54:55;100686.19;;;8.61;100.00
15272;BME280;7737;51.578;7.268;2023-04-28T03:57:21;100681.19;;;8.55;100.00
15272;BME280;7737;51.578;7.268;2023-04-28T03:59:49;100673.91;;;8.60;100.00
15272;BME280;7737;51.578;7.268;2023-04-28T04:02:16;100675.09;;;8.73;100.00
15272;BME280;7737;51.578;7.268;2023-04-28T04:04:42;100672.03;;;8.62;100.00
15272;BME280;7737;51.578;7.268;2023-04-28T04:07:09;100668.44;;;8.63;100.00
15272;BME280;7737;51.578;7.268;2023-04-28T04:09:36;100671.91;;;8.65;100.00
15272;BME280;7737;51.578;7.268;2023-04-28T04:12:03;100667.78;;;8.58;100.00
15272;BME280;7737;51.578;7.268;2023-04-28T04:14:30;100666.59;;;8.65;100.00
15272;BME280;7737;51.578;7.268;2023-04-28T04:16:58;100656.47;;;8.75;100.00
15272;BME280;7737;51.578;7.268;2023-04-28T04:19:25;100654.59;;;8.77;100.00
15272;BME280;7737;51.578;7.268;2023-04-28T04:21:52;100642.22;;;8.57;100.00
15272;BME280;7737;51.578;7.268;2023-04-28T04:24:18;100650.97;;;8.59;100.00
15272;BME280;7737;51.578;7.268;2023-04-28T04:26:45;100648.59;;;8.73;100.00
15272;BME280;7737;51.578;7.268;2023-04-28T04:29:12;100649.38;;;8.75;100.00
15272;BME280;7737;51.578;7.268;2023-04-28T04:31:38;100650.41;;;8.71;100.00
15272;BME280;7737;51.578;7.268;2023-04-28T04:34:06;100638.78;;;8.75;100.00
15272;BME280;7737;51.578;7.268;2023-04-28T04:36:32;100644.75;;;8.80;100.00
15272;BME280;7737;51.578;7.268;2023-04-28T04:38:59;100644.09;;;8.75;100.00
15272;BME280;7737;51.578;7.268;2023-04-28T04:41:26;100638.19;;;8.89;100.00
15272;BME280;7737;51.578;7.268;2023-04-28T04:43:52;100642.63;;;8.88;100.00
15272;BME280;7737;51.578;7.268;2023-04-28T04:46:19;100651.75;;;9.01;100.00
15272;BME280;7737;51.578;7.268;2023-04-28T04:48:45;100652.19;;;9.11;100.00
15272;BME280;7737;51.578;7.268;2023-04-28T04:51:13;100650.97;;;8.99;100.00
15272;BME280;7737;51.578;7.268;2023-04-28T04:53:40;100651.66;;;9.03;100.00
15272;BME280;7737;51.578;7.268;2023-04-28T04:56:06;100644.75;;;9.19;100.00
15272;BME280;7737;51.578;7.268;2023-04-28T04:58:33;100648.88;;;9.26;100.00
15272;BME280;7737;51.578;7.268;2023-04-28T05:01:00;100645.34;;;9.26;100.00
15272;BME280;7737;51.578;7.268;2023-04-28T05:03:26;100640.06;;;9.26;100.00
15272;BME280;7737;51.578;7.268;2023-04-28T05:05:53;100643.75;;;9.22;100.00
15272;BME280;7737;51.578;7.268;2023-04-28T05:08:20;100645.88;;;9.34;100.00
15272;BME280;7737;51.578;7.268;2023-04-28T05:10:47;100646.53;;;9.39;100.00
15272;BME280;7737;51.578;7.268;2023-04-28T05:13:14;100649.72;;;9.45;100.00
15272;BME280;7737;51.578;7.268;2023-04-28T05:15:40;100652.19;;;9.50;100.00
15272;BME280;7737;51.578;7.268;2023-04-28T05:18:07;100649.03;;;9.60;100.00
15272;BME280;7737;51.578;7.268;2023-04-28T05:20:35;100645.38;;;9.63;100.00
15272;BME280;7737;51.578;7.268;2023-04-28T05:23:02;100645.59;;;9.58;100.00
15272;BME280;7737;51.578;7.268;2023-04-28T05:25:30;100642.72;;;9.63;100.00
15272;BME280;7737;51.578;7.268;2023-04-28T05:27:56;100633.78;;;9.65;100.00
15272;BME280;7737;51.578;7.268;2023-04-28T05:30:24;100634.00;;;9.61;100.00
15272;BME280;7737;51.578;7.268;2023-04-28T05:32:52;100617.56;;;9.53;100.00
15272;BME280;7737;51.578;7.268;2023-04-28T05:35:19;100616.63;;;9.54;100.00
15272;BME280;7737;51.578;7.268;2023-04-28T05:37:45;100610.75;;;9.66;100.00
15272;BME280;7737;51.578;7.268;2023-04-28T05:40:12;100616.06;;;9.66;100.00
15272;BME280;7737;51.578;7.268;2023-04-28T05:42:40;100614.47;;;9.62;100.00
15272;BME280;7737;51.578;7.268;2023-04-28T05:45:07;100624.66;;;9.52;100.00
15272;BME280;7737;51.578;7.268;2023-04-28T05:47:34;100619.63;;;9.65;100.00
15272;BME280;7737;51.578;7.268;2023-04-28T05:50:01;100618.53;;;9.69;100.00
15272;BME280;7737;51.578;7.268;2023-04-28T05:52:28;100607.13;;;9.67;100.00
15272;BME280;7737;51.578;7.268;2023-04-28T05:54:54;100607.88;;;9.70;100.00
15272;BME280;7737;51.578;7.268;2023-04-28T05:57:21;100602.19;;;9.78;100.00
15272;BME280;7737;51.578;7.268;2023-04-28T05:59:49;100602.69;;;9.86;100.00
15272;BME280;7737;51.578;7.268;2023-04-28T06:02:15;100597.78;;;9.96;100.00
15272;BME280;7737;51.578;7.268;2023-04-28T06:04:42;100593.66;;;10.07;100.00
15272;BME280;7737;51.578;7.268;2023-04-28T06:07:09;100590.66;;;10.15;100.00
15272;BME280;7737;51.578;7.268;2023-04-28T06:09:36;100589.78;;;10.14;100.00
15272;BME280;7737;51.578;7.268;2023-04-28T06:12:02;100597.78;;;10.31;100.00
15272;BME280;7737;51.578;7.268;2023-04-28T06:14:29;100593.41;;;10.30;100.00
15272;BME280;7737;51.578;7.268;2023-04-28T06:16:57;100596.44;;;10.23;100.00
15272;BME280;7737;51.578;7.268;2023-04-28T06:19:24;100593.56;;;10.27;100.00
15272;BME280;7737;51.578;7.268;2023-04-28T06:21:50;100600.16;;;10.37;100.00
15272;BME280;7737;51.578;7.268;2023-04-28T06:24:17;100593.63;;;10.26;100.00
15272;BME280;7737;51.578;7.268;2023-04-28T06:26:43;100594.97;;;10.34;100.00
15272;BME280;7737;51.578;7.268;2023-04-28T06:29:10;100591.06;;;10.42;100.00
15272;BME280;7737;51.578;7.268;2023-04-28T06:31:36;100590.91;;;10.45;100.00
15272;BME280;7737;51.578;7.268;2023-04-28T06:34:04;100582.94;;;10.45;100.00
15272;BME280;7737;51.578;7.268;2023-04-28T06:36:31;100578.00;;;10.54;100.00
15272;BME280;7737;51.578;7.268;2023-04-28T06:38:58;100579.44;;;10.61;100.00
15272;BME280;7737;51.578;7.268;2023-04-28T06:41:24;100572.28;;;10.62;100.00
15272;BME280;7737;51.578;7.268;2023-04-28T06:43:53;100581.75;;;10.67;100.00
15272;BME280;7737;51.578;7.268;2023-04-28T06:46:19;100576.88;;;10.75;100.00
15272;BME280;7737;51.578;7.268;2023-04-28T06:48:46;100576.28;;;10.70;100.00
15272;BME280;7737;51.578;7.268;2023-04-28T06:51:14;100567.69;;;10.65;100.00
15272;BME280;7737;51.578;7.268;2023-04-28T06:53:41;100573.16;;;10.62;100.00
15272;BME280;7737;51.578;7.268;2023-04-28T06:56:07;100567.81;;;10.79;100.00
15272;BME280;7737;51.578;7.268;2023-04-28T06:58:34;100574.94;;;10.79;100.00
15272;BME280;7737;51.578;7.268;2023-04-28T07:01:01;100560.53;;;10.83;100.00
15272;BME280;7737;51.578;7.268;2023-04-28T07:03:28;100558.50;;;10.88;100.00
15272;BME280;7737;51.578;7.268;2023-04-28T07:05:54;100570.53;;;10.95;100.00
15272;BME280;7737;51.578;7.268;2023-04-28T07:08:23;100562.59;;;10.93;100.00
15272;BME280;7737;51.578;7.268;2023-04-28T07:10:49;100560.00;;;11.09;100.00
15272;BME280;7737;51.578;7.268;2023-04-28T07:13:16;100555.78;;;11.05;100.00
15272;BME280;7737;51.578;7.268;2023-04-28T07:15:42;100561.81;;;11.09;100.00
15272;BME280;7737;51.578;7.268;2023-04-28T07:18:09;100571.09;;;11.17;100.00
15272;BME280;7737;51.578;7.268;2023-04-28T07:20:36;100553.25;;;11.35;100.00
15272;BME280;7737;51.578;7.268;2023-04-28T07:23:02;100553.44;;;11.47;100.00
15272;BME280;7737;51.578;7.268;2023-04-28T07:25:30;100555.16;;;11.48;100.00
15272;BME280;7737;51.578;7.268;2023-04-28T07:27:57;100549.72;;;11.34;100.00
15272;BME280;7737;51.578;7.268;2023-04-28T07:30:23;100559.88;;;11.59;100.00
15272;BME280;7737;51.578;7.268;2023-04-28T07:32:50;100558.59;;;11.82;100.00
15272;BME280;7737;51.578;7.268;2023-04-28T07:35:17;100557.06;;;11.93;100.00
15272;BME280;7737;51.578;7.268;2023-04-28T07:37:43;100558.94;;;11.91;100.00
15272;BME280;7737;51.578;7.268;2023-04-28T07:40:10;100560.13;;;12.01;100.00
15272;BME280;7737;51.578;7.268;2023-04-28T07:42:38;100552.28;;;12.14;100.00
15272;BME280;7737;51.578;7.268;2023-04-28T07:45:06;100551.94;;;12.34;100.00
15272;BME280;7737;51.578;7.268;2023-04-28T07:47:33;100550.59;;;12.27;100.00
15272;BME280;7737;51.578;7.268;2023-04-28T07:49:59;100554.41;;;12.23;100.00
15272;BME280;7737;51.578;7.268;2023-04-28T07:52:29;100554.84;;;12.45;100.00
15272;BME280;7737;51.578;7.268;2023-04-28T07:54:56;100560.81;;;12.78;100.00
15272;BME280;7737;51.578;7.268;2023-04-28T07:57:22;100559.31;;;12.45;100.00
15272;BME280;7737;51.578;7.268;2023-04-28T07:59:50;100559.81;;;12.51;100.00
15272;BME280;7737;51.578;7.268;2023-04-28T08:02:17;100551.66;;;12.82;100.00
15272;BME280;7737;51.578;7.268;2023-04-28T08:04:44;100547.28;;;12.96;100.00
15272;BME280;7737;51.578;7.268;2023-04-28T08:07:11;100550.19;;;13.21;100.00
15272;BME280;7737;51.578;7.268;2023-04-28T08:09:38;100541.19;;;13.50;100.00
15272;BME280;7737;51.578;7.268;2023-04-28T08:12:07;100543.88;;;13.36;100.00
15272;BME280;7737;51.578;7.268;2023-04-28T08:14:33;100536.84;;;13.48;100.00
15272;BME280;7737;51.578;7.268;2023-04-28T08:17:01;100534.47;;;13.57;100.00
15272;BME280;7737;51.578;7.268;2023-04-28T08:19:28;100529.34;;;13.81;100.00
15272;BME280;7737;51.578;7.268;2023-04-28T08:21:54;100533.22;;;13.89;100.00
15272;BME280;7737;51.578;7.268;2023-04-28T08:24:21;100535.97;;;13.88;100.00
15272;BME280;7737;51.578;7.268;2023-04-28T08:26:47;100525.66;;;13.69;100.00
15272;BME280;7737;51.578;7.268;2023-04-28T08:29:14;100526.66;;;14.08;100.00
15272;BME280;7737;51.578;7.268;2023-04-28T08:31:40;100523.97;;;14.08;100.00
15272;BME280;7737;51.578;7.268;2023-04-28T08:34:09;100524.13;;;14.19;100.00
15272;BME280;7737;51.578;7.268;2023-04-28T08:36:35;100514.13;;;14.73;100.00
15272;BME280;7737;51.578;7.268;2023-04-28T08:39:02;100509.44;;;14.63;100.00
15272;BME280;7737;51.578;7.268;2023-04-28T08:41:32;100511.69;;;14.82;100.00
15272;BME280;7737;51.578;7.268;2023-04-28T08:44:06;100498.94;;;14.98;100.00
15272;BME280;7737;51.578;7.268;2023-04-28T08:46:33;100493.47;;;15.00;100.00
15272;BME280;7737;51.578;7.268;2023-04-28T08:49:03;100489.94;;;15.36;100.00
15272;BME280;7737;51.578;7.268;2023-04-28T08:51:37;100492.59;;;15.61;100.00
15272;BME280;7737;51.578;7.268;2023-04-28T08:54:10;100480.09;;;15.49;100.00
15272;BME280;7737;51.578;7.268;2023-04-28T08:56:40;100479.31;;;15.59;100.00
15272;BME280;7737;51.578;7.268;2023-04-28T08:59:09;100485.63;;;15.82;100.00
15272;BME280;7737;51.578;7.268;2023-04-28T09:01:37;100481.50;;;15.89;100.00
15272;BME280;7737;51.578;7.268;2023-04-28T09:04:04;100485.47;;;15.96;100.00
15272;BME280;7737;51.578;7.268;2023-04-28T09:06:32;100479.03;;;15.75;100.00
15272;BME280;7737;51.578;7.268;2023-04-28T09:09:18;100469.47;;;15.95;100.00
15272;BME280;7737;51.578;7.268;2023-04-28T09:11:52;100468.50;;;15.96;100.00
15272;BME280;7737;51.578;7.268;2023-04-28T09:14:20;100461.84;;;16.01;100.00
15272;BME280;7737;51.578;7.268;2023-04-28T09:16:46;100462.69;;;15.78;100.00
15272;BME280;7737;51.578;7.268;2023-04-28T09:19:13;100452.38;;;16.19;100.00
15272;BME280;7737;51.578;7.268;2023-04-28T09:21:48;100448.34;;;16.60;100.00
15272;BME280;7737;51.578;7.268;2023-04-28T09:24:27;100434.66;;;16.96;100.00
15272;BME280;7737;51.578;7.268;2023-04-28T09:26:53;100428.81;;;17.02;100.00
15272;BME280;7737;51.578;7.268;2023-04-28T09:29:20;100429.22;;;17.29;100.00
15272;BME280;7737;51.578;7.268;2023-04-28T09:31:47;100426.88;;;17.47;100.00
15272;BME280;7737;51.578;7.268;2023-04-28T09:34:14;100428.28;;;17.08;100.00
15272;BME280;7737;51.578;7.268;2023-04-28T09:36:40;100443.44;;;17.20;100.00
15272;BME280;7737;51.578;7.268;2023-04-28T09:39:07;100432.38;;;17.34;100.00
15272;BME280;7737;51.578;7.268;2023-04-28T09:41:39;100432.84;;;17.08;100.00
15272;BME280;7737;51.578;7.268;2023-04-28T09:44:10;100442.47;;;16.99;100.00
15272;BME280;7737;51.578;7.268;2023-04-28T09:46:37;100439.78;;;16.77;100.00
15272;BME280;7737;51.578;7.268;2023-04-28T09:49:04;100450.88;;;16.94;100.00
15272;BME280;7737;51.578;7.268;2023-04-28T09:51:31;100448.22;;;16.61;100.00
15272;BME280;7737;51.578;7.268;2023-04-28T09:53:59;100442.69;;;16.63;100.00
15272;BME280;7737;51.578;7.268;2023-04-28T09:56:26;100448.03;;;16.40;100.00
15272;BME280;7737;51.578;7.268;2023-04-28T09:58:56;100450.72;;;16.40;100.00
15272;BME280;7737;51.578;7.268;2023-04-28T10:01:23;100454.03;;;16.55;100.00
15272;BME280;7737;51.578;7.268;2023-04-28T10:03:52;100453.41;;;16.52;100.00
15272;BME280;7737;51.578;7.268;2023-04-28T10:06:18;100453.16;;;16.43;100.00
15272;BME280;7737;51.578;7.268;2023-04-28T10:08:46;100453.22;;;16.55;100.00
15272;BME280;7737;51.578;7.268;2023-04-28T10:11:14;100441.50;;;16.67;100.00
15272;BME280;7737;51.578;7.268;2023-04-28T10:13:41;100454.56;;;16.93;100.00
15272;BME280;7737;51.578;7.268;2023-04-28T10:16:10;100441.50;;;16.89;100.00
15272;BME280;7737;51.578;7.268;2023-04-28T10:18:38;100451.53;;;16.76;100.00
15272;BME280;7737;51.578;7.268;2023-04-28T10:21:06;100446.63;;;16.81;100.00
15272;BME280;7737;51.578;7.268;2023-04-28T10:27:07;100437.22;;;16.64;100.00
15272;BME280;7737;51.578;7.268;2023-04-28T10:29:34;100437.09;;;16.88;100.00
15272;BME280;7737;51.578;7.268;2023-04-28T10:32:16;100439.06;;;16.86;100.00
15272;BME280;7737;51.578;7.268;2023-04-28T10:34:43;100434.19;;;16.91;100.00
15272;BME280;7737;51.578;7.268;2023-04-28T10:37:10;100433.69;;;16.97;100.00
15272;BME280;7737;51.578;7.268;2023-04-28T10:39:39;100428.06;;;17.00;100.00
15272;BME280;7737;51.578;7.268;2023-04-28T10:45:12;100424.16;;;16.93;100.00
15272;BME280;7737;51.578;7.268;2023-04-28T10:48:01;100416.09;;;17.15;100.00
15272;BME280;7737;51.578;7.268;2023-04-28T10:50:30;100424.66;;;16.98;100.00
15272;BME280;7737;51.578;7.268;2023-04-28T10:52:57;100416.31;;;17.23;100.00
15272;BME280;7737;51.578;7.268;2023-04-28T10:55:29;100405.09;;;17.18;100.00
15272;BME280;7737;51.578;7.268;2023-04-28T10:58:31;100420.84;;;17.12;100.00
15272;BME280;7737;51.578;7.268;2023-04-28T11:01:23;100422.19;;;16.84;100.00
15272;BME280;7737;51.578;7.268;2023-04-28T11:03:52;100427.00;;;16.80;100.00
15272;BME280;7737;51.578;7.268;2023-04-28T11:06:25;100431.00;;;16.64;100.00
15272;BME280;7737;51.578;7.268;2023-04-28T11:08:54;100431.25;;;16.61;100.00
15272;BME280;7737;51.578;7.268;2023-04-28T11:11:23;100435.41;;;16.54;100.00
15272;BME280;7737;51.578;7.268;2023-04-28T11:13:50;100444.84;;;16.35;100.00
15272;BME280;7737;51.578;7.268;2023-04-28T11:16:28;100427.69;;;16.49;100.00
15272;BME280;7737;51.578;7.268;2023-04-28T11:18:58;100434.16;;;16.47;100.00
15272;BME280;7737;51.578;7.268;2023-04-28T11:21:29;100445.59;;;16.37;100.00
15272;BME280;7737;51.578;7.268;2023-04-28T11:23:57;100447.78;;;16.32;100.00
15272;BME280;7737;51.578;7.268;2023-04-28T11:26:24;100441.19;;;16.25;100.00
15272;BME280;7737;51.578;7.268;2023-04-28T11:28:51;100440.09;;;16.28;100.00
15272;BME280;7737;51.578;7.268;2023-04-28T11:31:19;100445.16;;;16.55;100.00
15272;BME280;7737;51.578;7.268;2023-04-28T11:33:51;100450.22;;;16.35;100.00
15272;BME280;7737;51.578;7.268;2023-04-28T11:36:28;100453.81;;;16.23;100.00
15272;BME280;7737;51.578;7.268;2023-04-28T11:38:56;100458.09;;;16.15;100.00
15272;BME280;7737;51.578;7.268;2023-04-28T11:41:23;100465.50;;;16.11;100.00
15272;BME280;7737;51.578;7.268;2023-04-28T11:43:51;100467.38;;;15.87;100.00
15272;BME280;7737;51.578;7.268;2023-04-28T11:46:18;100458.59;;;15.85;100.00
15272;BME280;7737;51.578;7.268;2023-04-28T11:48:46;100468.75;;;15.69;100.00
15272;BME280;7737;51.578;7.268;2023-04-28T11:51:34;100468.75;;;15.69;100.00
15272;BME280;7737;51.578;7.268;2023-04-28T11:54:03;100468.97;;;15.66;100.00
15272;BME280;7737;51.578;7.268;2023-04-28T11:56:36;100477.59;;;15.58;100.00
15272;BME280;7737;51.578;7.268;2023-04-28T11:59:04;100470.41;;;15.59;100.00
15272;BME280;7737;51.578;7.268;2023-04-28T12:01:32;100479.41;;;15.58;100.00
15272;BME280;7737;51.578;7.268;2023-04-28T12:03:59;100473.94;;;15.59;100.00
15272;BME280;7737;51.578;7.268;2023-04-28T12:06:25;100478.63;;;15.68;100.00
15272;BME280;7737;51.578;7.268;2023-04-28T12:08:54;100479.69;;;15.66;100.00
15272;BME280;7737;51.578;7.268;2023-04-28T12:11:22;100476.09;;;15.54;100.00
15272;BME280;7737;51.578;7.268;2023-04-28T12:14:05;100473.31;;;15.56;100.00
15272;BME280;7737;51.578;7.268;2023-04-28T12:16:37;100474.56;;;15.63;100.00
15272;BME280;7737;51.578;7.268;2023-04-28T12:19:07;100471.81;;;15.52;100.00
15272;BME280;7737;51.578;7.268;2023-04-28T12:21:36;100474.69;;;15.61;100.00
15272;BME280;7737;51.578;7.268;2023-04-28T12:24:17;100476.22;;;15.76;100.00
15272;BME280;7737;51.578;7.268;2023-04-28T12:26:45;100471.28;;;15.83;100.00
15272;BME280;7737;51.578;7.268;2023-04-28T12:29:34;100476.50;;;15.61;100.00
15272;BME280;7737;51.578;7.268;2023-04-28T12:32:01;100470.94;;;15.64;100.00
15272;BME280;7737;51.578;7.268;2023-04-28T12:34:28;100476.94;;;15.78;100.00
15272;BME280;7737;51.578;7.268;2023-04-28T12:36:55;100482.00;;;15.94;100.00
15272;BME280;7737;51.578;7.268;2023-04-28T12:39:24;100477.41;;;15.96;100.00
15272;BME280;7737;51.578;7.268;2023-04-28T12:41:51;100480.41;;;15.92;100.00
15272;BME280;7737;51.578;7.268;2023-04-28T12:44:18;100481.19;;;16.05;100.00
15272;BME280;7737;51.578;7.268;2023-04-28T12:46:44;100476.47;;;16.08;100.00
15272;BME280;7737;51.578;7.268;2023-04-28T12:49:11;100479.34;;;15.94;100.00
15272;BME280;7737;51.578;7.268;2023-04-28T12:51:38;100474.91;;;15.82;100.00
15272;BME280;7737;51.578;7.268;2023-04-28T12:54:05;100478.97;;;15.88;100.00
15272;BME280;7737;51.578;7.268;2023-04-28T12:56:33;100475.69;;;15.95;100.00
15272;BME280;7737;51.578;7.268;2023-04-28T12:59:00;100482.22;;;15.80;100.00
15272;BME280;7737;51.578;7.268;2023-04-28T13:01:27;100486.88;;;15.89;100.00
15272;BME280;7737;51.578;7.268;2023-04-28T13:03:54;100479.34;;;15.94;100.00
15272;BME280;7737;51.578;7.268;2023-04-28T13:06:21;100483.09;;;15.92;100.00